Aviation Digital Data Service (ADDS)

Output produced by METARs form (0223 UTC 13 February 2016)
found at http://www.aviationweather.gov/adds/metars/
 
KCMI 122320Z 1300/1324 31015G25KT P6SM SKC 
     FM130900 32013KT P6SM SKC 
     FM131300 33010KT P6SM SCT250